Time;durP1;ratioP1;P1;durP2;ratioP2;P2;SDS_P1;SDS_P2;PMS_P1;PMS_P2;Temp;Humidity;BMP_temperature;BMP_pressure;BME280_temperature;BME280_humidity;BME280_pressure;Samples;Min_cycle;Max_cycle;Signal;HPM_P1;HPM_P2
2023/03/04 00:02:23;;;;;;;;;;;6.00;99.90;;;;;;5073001;28;19989;-43
2023/03/04 00:04:49;;;;;;;;;;;6.10;99.90;;;;;;5093141;28;19966;-41
2023/03/04 00:07:17;;;;;;;;;;;5.90;99.90;;;;;;5075301;28;19950;-46
2023/03/04 00:09:44;;;;;;;;;;;6.10;99.90;;;;;;5073966;28;19947;-44
2023/03/04 00:12:11;;;;;;;;;;;6.00;99.90;;;;;;5091902;28;19986;-44
2023/03/04 00:14:39;;;;;;;;;;;5.90;99.90;;;;;;5070514;28;20438;-42
2023/03/04 00:17:05;;;;;;;;;;;5.90;99.90;;;;;;5062899;28;20059;-44
2023/03/04 00:19:33;;;;;;;;;;;5.90;99.90;;;;;;5083956;28;20514;-44
2023/03/04 00:22:00;;;;;;;;;;;5.90;99.90;;;;;;5066069;28;20018;-44
2023/03/04 00:24:27;;;;;;;;;;;5.90;99.90;;;;;;5086666;28;19952;-43
2023/03/04 00:26:53;;;;;;;;;;;5.90;99.90;;;;;;5090519;28;19989;-43
2023/03/04 00:29:20;;;;;;;;;;;6.00;99.90;;;;;;5073851;28;19991;-39
2023/03/04 00:31:48;;;;;;;;;;;5.90;99.90;;;;;;5089711;28;19940;-41
2023/03/04 00:34:15;;;;;;;;;;;5.90;99.90;;;;;;5084816;28;20004;-43
2023/03/04 00:36:43;;;;;;;;;;;5.90;99.90;;;;;;5087644;28;19995;-41
2023/03/04 00:39:10;;;;;;;;;;;5.90;99.90;;;;;;5073470;28;20379;-41
2023/03/04 00:41:36;;;;;;;;;;;5.90;99.90;;;;;;5090554;28;20047;-42
2023/03/04 00:44:03;;;;;;;;;;;5.90;99.90;;;;;;5090180;28;19970;-42
2023/03/04 00:46:30;;;;;;;;;;;5.90;99.90;;;;;;5073748;28;20026;-40
2023/03/04 00:48:58;;;;;;;;;;;5.80;99.90;;;;;;5090234;28;20393;-42
2023/03/04 00:51:24;;;;;;;;;;;5.90;99.90;;;;;;5090692;28;19993;-45
2023/03/04 00:53:51;;;;;;;;;;;5.90;99.90;;;;;;5073754;28;19999;-44
2023/03/04 00:56:18;;;;;;;;;;;5.90;99.90;;;;;;5078915;28;20443;-43
2023/03/04 00:58:45;;;;;;;;;;;5.80;99.90;;;;;;5074762;28;19977;-42
2023/03/04 01:01:11;;;;;;;;;;;5.90;99.90;;;;;;5060903;28;20001;-43
2023/03/04 01:03:40;;;;;;;;;;;5.90;99.90;;;;;;5062779;28;20040;-41
2023/03/04 01:06:08;;;;;;;;;;;5.90;99.90;;;;;;5090887;28;20025;-44
2023/03/04 01:08:35;;;;;;;;;;;5.90;99.90;;;;;;5091488;28;19998;-43
2023/03/04 01:11:01;;;;;;;;;;;5.80;99.90;;;;;;5056501;28;20000;-40
2023/03/04 01:13:28;;;;;;;;;;;5.80;99.90;;;;;;5086064;28;20017;-43
2023/03/04 01:15:55;;;;;;;;;;;5.80;99.90;;;;;;5090864;28;20006;-43
2023/03/04 01:18:21;;;;;;;;;;;5.90;99.90;;;;;;5069764;28;19941;-44
2023/03/04 01:20:48;;;;;;;;;;;5.80;99.90;;;;;;5067431;28;19996;-42
2023/03/04 01:23:16;;;;;;;;;;;5.90;99.90;;;;;;5090079;28;19998;-43
2023/03/04 01:25:43;;;;;;;;;;;5.80;99.90;;;;;;5072205;28;20054;-43
2023/03/04 01:28:10;;;;;;;;;;;5.80;99.90;;;;;;5089291;28;20476;-43
2023/03/04 01:30:36;;;;;;;;;;;5.80;99.90;;;;;;5073691;28;19983;-42
2023/03/04 01:33:03;;;;;;;;;;;5.90;99.90;;;;;;5073813;28;19946;-45
2023/03/04 01:35:30;;;;;;;;;;;5.80;99.90;;;;;;5071228;28;20031;-42
2023/03/04 01:37:56;;;;;;;;;;;5.80;99.90;;;;;;5072700;28;20004;-41
2023/03/04 01:40:24;;;;;;;;;;;5.80;99.90;;;;;;5070874;28;20023;-44
2023/03/04 01:42:51;;;;;;;;;;;5.80;99.90;;;;;;5072678;28;20070;-44
2023/03/04 01:45:18;;;;;;;;;;;5.80;99.90;;;;;;5073708;28;20000;-43
2023/03/04 01:47:47;;;;;;;;;;;5.80;99.90;;;;;;5086706;28;19945;-43
2023/03/04 01:50:16;;;;;;;;;;;5.80;99.90;;;;;;5090858;28;19952;-40
2023/03/04 01:52:42;;;;;;;;;;;5.80;99.90;;;;;;5090915;28;20473;-42
2023/03/04 01:55:11;;;;;;;;;;;5.80;99.90;;;;;;5073100;28;20011;-43
2023/03/04 01:57:39;;;;;;;;;;;5.80;99.90;;;;;;5090166;28;19998;-42
2023/03/04 02:00:19;;;;;;;;;;;5.90;99.90;;;;;;5072148;28;20302;-41
2023/03/04 02:02:46;;;;;;;;;;;5.80;99.90;;;;;;5072069;28;20426;-37
2023/03/04 02:05:12;;;;;;;;;;;5.80;99.90;;;;;;5089671;28;19985;-43
2023/03/04 02:07:39;;;;;;;;;;;5.80;99.90;;;;;;5089902;28;19949;-42
2023/03/04 02:10:06;;;;;;;;;;;5.80;99.90;;;;;;5073165;28;20035;-41
2023/03/04 02:12:33;;;;;;;;;;;5.80;99.90;;;;;;5071778;28;19992;-41
2023/03/04 02:15:01;;;;;;;;;;;5.80;99.90;;;;;;5090124;28;19943;-40
2023/03/04 02:17:27;;;;;;;;;;;5.80;99.90;;;;;;5090766;28;20078;-42
2023/03/04 02:19:55;;;;;;;;;;;5.80;99.90;;;;;;5090607;28;20399;-40
2023/03/04 02:22:22;;;;;;;;;;;5.80;99.90;;;;;;5074999;28;20271;-43
2023/03/04 02:24:49;;;;;;;;;;;5.80;99.90;;;;;;5094635;28;19940;-42
2023/03/04 02:27:17;;;;;;;;;;;5.80;99.90;;;;;;5094235;28;20368;-43
2023/03/04 02:29:43;;;;;;;;;;;5.70;99.90;;;;;;5094219;28;19996;-41
2023/03/04 02:32:10;;;;;;;;;;;5.80;99.90;;;;;;5094154;28;19993;-43
2023/03/04 02:34:42;;;;;;;;;;;5.80;99.90;;;;;;5076383;28;20096;-41
2023/03/04 02:37:09;;;;;;;;;;;5.80;99.90;;;;;;5094368;28;19942;-42
2023/03/04 02:39:36;;;;;;;;;;;5.80;99.90;;;;;;5073653;28;19982;-43
2023/03/04 02:42:03;;;;;;;;;;;5.70;99.90;;;;;;5094795;28;19944;-42
2023/03/04 02:44:31;;;;;;;;;;;5.80;99.90;;;;;;5069496;28;20431;-42
2023/03/04 02:46:58;;;;;;;;;;;5.70;99.90;;;;;;5093927;28;19950;-40
2023/03/04 02:49:25;;;;;;;;;;;5.70;99.90;;;;;;5075376;28;20451;-41
2023/03/04 02:51:52;;;;;;;;;;;5.70;99.90;;;;;;5100457;28;20403;-39
2023/03/04 02:54:19;;;;;;;;;;;5.70;99.90;;;;;;5093026;28;20320;-41
2023/03/04 02:56:46;;;;;;;;;;;5.70;99.90;;;;;;5091637;28;19991;-41
2023/03/04 02:59:13;;;;;;;;;;;5.70;99.90;;;;;;5075328;28;19945;-42
2023/03/04 03:01:41;;;;;;;;;;;5.70;99.90;;;;;;5092613;28;20180;-42
2023/03/04 03:04:07;;;;;;;;;;;5.70;99.90;;;;;;5091536;28;20087;-37
2023/03/04 03:06:34;;;;;;;;;;;5.70;99.90;;;;;;5094411;28;19945;-44
2023/03/04 03:09:01;;;;;;;;;;;5.70;99.90;;;;;;5066530;28;19998;-46
2023/03/04 03:11:27;;;;;;;;;;;5.70;99.90;;;;;;5065464;28;19947;-44
2023/03/04 03:13:54;;;;;;;;;;;5.70;99.90;;;;;;5093629;28;19946;-41
2023/03/04 03:16:21;;;;;;;;;;;5.70;99.90;;;;;;5075561;28;20019;-40
2023/03/04 03:18:49;;;;;;;;;;;5.70;99.90;;;;;;5093992;28;20409;-42
2023/03/04 03:21:15;;;;;;;;;;;5.70;99.90;;;;;;5074570;28;20458;-43
2023/03/04 03:23:42;;;;;;;;;;;5.60;99.90;;;;;;5074528;28;19968;-43
2023/03/04 03:26:08;;;;;;;;;;;5.70;99.90;;;;;;5069762;28;19989;-44
2023/03/04 03:28:35;;;;;;;;;;;5.60;99.90;;;;;;5092682;28;19989;-43
2023/03/04 03:31:02;;;;;;;;;;;5.60;99.90;;;;;;5094027;28;19943;-41
2023/03/04 03:33:28;;;;;;;;;;;5.60;99.90;;;;;;5073754;28;19955;-41
2023/03/04 03:35:56;;;;;;;;;;;5.60;99.90;;;;;;5075068;28;20358;-44
2023/03/04 03:38:23;;;;;;;;;;;5.60;99.90;;;;;;5091463;28;19950;-43
2023/03/04 03:40:50;;;;;;;;;;;5.70;99.90;;;;;;5093069;28;20051;-42
2023/03/04 03:43:16;;;;;;;;;;;5.60;99.90;;;;;;5090943;28;19979;-41
2023/03/04 03:45:43;;;;;;;;;;;5.70;99.90;;;;;;5092741;28;20001;-44
2023/03/04 03:48:09;;;;;;;;;;;5.70;99.90;;;;;;5092774;28;20000;-39
2023/03/04 03:50:36;;;;;;;;;;;5.70;99.90;;;;;;5091709;28;19993;-42
2023/03/04 03:53:04;;;;;;;;;;;5.60;99.90;;;;;;5074916;28;20673;-42
2023/03/04 03:55:31;;;;;;;;;;;5.60;99.90;;;;;;5074781;28;19948;-39
2023/03/04 03:57:57;;;;;;;;;;;5.60;99.90;;;;;;5093818;28;19945;-40
2023/03/04 04:00:24;;;;;;;;;;;5.60;99.90;;;;;;5092751;28;20059;-41
2023/03/04 04:02:51;;;;;;;;;;;5.60;99.90;;;;;;5074720;28;19981;-42
2023/03/04 04:05:17;;;;;;;;;;;5.60;99.90;;;;;;5092173;28;20358;-41
2023/03/04 04:07:44;;;;;;;;;;;5.60;99.90;;;;;;5092610;28;19986;-40
2023/03/04 04:10:12;;;;;;;;;;;5.60;99.90;;;;;;5091659;28;19939;-41
2023/03/04 04:12:39;;;;;;;;;;;5.60;99.90;;;;;;5091571;28;19979;-40
2023/03/04 04:15:06;;;;;;;;;;;5.60;99.90;;;;;;5091314;28;20013;-43
2023/03/04 04:17:33;;;;;;;;;;;5.60;99.90;;;;;;5092395;28;20012;-43
2023/03/04 04:19:59;;;;;;;;;;;5.60;99.90;;;;;;5093193;28;19940;-42
2023/03/04 04:22:26;;;;;;;;;;;5.60;99.90;;;;;;5091684;28;20025;-42
2023/03/04 04:24:52;;;;;;;;;;;5.60;99.90;;;;;;5073209;28;20390;-43
2023/03/04 04:27:21;;;;;;;;;;;5.60;99.90;;;;;;5074065;28;19990;-42
2023/03/04 04:29:48;;;;;;;;;;;5.60;99.90;;;;;;5073171;28;20258;-43
2023/03/04 04:32:14;;;;;;;;;;;5.60;99.90;;;;;;5074571;28;20042;-45
2023/03/04 04:34:41;;;;;;;;;;;5.60;99.90;;;;;;5091951;28;19953;-43
2023/03/04 04:37:07;;;;;;;;;;;5.60;99.90;;;;;;5072121;28;19945;-43
2023/03/04 04:39:34;;;;;;;;;;;5.60;99.90;;;;;;5071799;28;20033;-43
2023/03/04 04:42:01;;;;;;;;;;;5.60;99.90;;;;;;5073678;28;19963;-42
2023/03/04 04:44:29;;;;;;;;;;;5.70;99.90;;;;;;5073689;28;20401;-43
2023/03/04 04:46:55;;;;;;;;;;;5.60;99.90;;;;;;5061682;28;19982;-39
2023/03/04 04:49:22;;;;;;;;;;;5.60;99.90;;;;;;5091718;28;19955;-41
2023/03/04 04:51:49;;;;;;;;;;;5.50;99.90;;;;;;5090959;28;20419;-41
2023/03/04 04:54:16;;;;;;;;;;;5.60;99.90;;;;;;5070419;28;20386;-39
2023/03/04 04:56:42;;;;;;;;;;;5.60;99.90;;;;;;5091592;28;20411;-42
2023/03/04 04:59:09;;;;;;;;;;;5.50;99.90;;;;;;5091678;28;20013;-43
2023/03/04 05:01:37;;;;;;;;;;;5.50;99.90;;;;;;5071886;28;19959;-43
2023/03/04 05:04:04;;;;;;;;;;;5.50;99.90;;;;;;5088880;28;20038;-45
2023/03/04 05:06:30;;;;;;;;;;;5.60;99.90;;;;;;5072107;28;20005;-42
2023/03/04 05:08:57;;;;;;;;;;;5.50;99.90;;;;;;5090937;28;19993;-43
2023/03/04 05:11:24;;;;;;;;;;;5.50;99.90;;;;;;5090583;28;19999;-43
2023/03/04 05:13:50;;;;;;;;;;;5.60;99.90;;;;;;5074234;28;19946;-44
2023/03/04 05:16:17;;;;;;;;;;;5.50;99.90;;;;;;5070978;28;20418;-47
2023/03/04 05:18:45;;;;;;;;;;;5.50;99.90;;;;;;5090136;28;19946;-46
2023/03/04 05:21:12;;;;;;;;;;;5.50;99.90;;;;;;5072707;28;19998;-45
2023/03/04 05:23:39;;;;;;;;;;;5.60;99.90;;;;;;5073970;28;19951;-45
2023/03/04 05:26:05;;;;;;;;;;;5.50;99.90;;;;;;5091636;28;19995;-44
2023/03/04 05:28:32;;;;;;;;;;;5.50;99.90;;;;;;5073387;28;20009;-42
2023/03/04 05:30:59;;;;;;;;;;;5.50;99.90;;;;;;5071404;28;19992;-43
2023/03/04 05:33:25;;;;;;;;;;;5.50;99.90;;;;;;5068911;28;19949;-39
2023/03/04 05:35:53;;;;;;;;;;;5.50;99.90;;;;;;5071258;28;20046;-42
2023/03/04 05:38:20;;;;;;;;;;;5.50;99.90;;;;;;5073503;28;20389;-40
2023/03/04 05:40:47;;;;;;;;;;;5.50;99.90;;;;;;5071944;28;20308;-41
2023/03/04 05:43:14;;;;;;;;;;;5.40;99.90;;;;;;5092200;28;20002;-42
2023/03/04 05:45:40;;;;;;;;;;;5.50;99.90;;;;;;5072810;28;20365;-41
2023/03/04 05:48:07;;;;;;;;;;;5.50;99.90;;;;;;5091182;28;20424;-42
2023/03/04 05:50:34;;;;;;;;;;;5.50;99.90;;;;;;5075099;28;19946;-43
2023/03/04 05:53:02;;;;;;;;;;;5.50;99.90;;;;;;5102911;28;19943;-42
2023/03/04 05:55:28;;;;;;;;;;;5.50;99.90;;;;;;5090925;28;20485;-41
2023/03/04 05:57:55;;;;;;;;;;;5.40;99.90;;;;;;5093969;28;20315;-43
2023/03/04 06:00:22;;;;;;;;;;;5.50;99.90;;;;;;5075028;28;20471;-41
2023/03/04 06:02:48;;;;;;;;;;;5.40;99.90;;;;;;5091913;28;20010;-42
2023/03/04 06:05:15;;;;;;;;;;;5.40;99.90;;;;;;5074062;28;20035;-45
2023/03/04 06:07:42;;;;;;;;;;;5.40;99.90;;;;;;5074251;28;19993;-42
2023/03/04 06:10:11;;;;;;;;;;;5.30;99.90;;;;;;5094651;28;20322;-41
2023/03/04 06:12:38;;;;;;;;;;;5.40;99.90;;;;;;5076868;28;20008;-41
2023/03/04 06:15:05;;;;;;;;;;;5.40;99.90;;;;;;5092552;28;19986;-44
2023/03/04 06:17:32;;;;;;;;;;;5.40;99.90;;;;;;5093468;28;19947;-43
2023/03/04 06:19:59;;;;;;;;;;;5.40;99.90;;;;;;5094556;28;19996;-38
2023/03/04 06:22:25;;;;;;;;;;;5.40;99.90;;;;;;5075488;28;20012;-43
2023/03/04 06:24:52;;;;;;;;;;;5.30;99.90;;;;;;5094215;28;19985;-43
2023/03/04 06:27:20;;;;;;;;;;;5.40;99.90;;;;;;5094388;28;20036;-44
2023/03/04 06:29:47;;;;;;;;;;;5.40;99.90;;;;;;5072239;28;19998;-46
2023/03/04 06:32:13;;;;;;;;;;;5.40;99.90;;;;;;5094297;28;20001;-46
2023/03/04 06:34:40;;;;;;;;;;;5.40;99.90;;;;;;5074078;28;19948;-42
2023/03/04 06:37:06;;;;;;;;;;;5.40;99.90;;;;;;5088553;28;19947;-40
2023/03/04 06:39:33;;;;;;;;;;;5.40;99.90;;;;;;5071826;28;20385;-41
2023/03/04 06:42:00;;;;;;;;;;;5.50;99.90;;;;;;5071497;28;19953;-41
2023/03/04 06:44:28;;;;;;;;;;;5.40;99.90;;;;;;5090855;28;20002;-40
2023/03/04 06:46:54;;;;;;;;;;;5.50;99.90;;;;;;5089821;28;20414;-43
2023/03/04 06:49:21;;;;;;;;;;;5.50;99.90;;;;;;5091768;28;19952;-47
2023/03/04 06:51:48;;;;;;;;;;;5.50;99.90;;;;;;5069873;28;19944;-42
2023/03/04 06:54:14;;;;;;;;;;;5.50;99.90;;;;;;5074387;28;20404;-40
2023/03/04 06:56:41;;;;;;;;;;;5.50;99.90;;;;;;5092512;28;20017;-46
2023/03/04 06:59:08;;;;;;;;;;;5.60;99.90;;;;;;5091039;28;20006;-46
2023/03/04 07:01:36;;;;;;;;;;;5.60;99.90;;;;;;5073272;28;20039;-45
2023/03/04 07:04:03;;;;;;;;;;;5.60;99.90;;;;;;5074699;28;19953;-46
2023/03/04 07:06:30;;;;;;;;;;;5.60;99.90;;;;;;5092163;28;20227;-48
2023/03/04 07:08:57;;;;;;;;;;;5.60;99.90;;;;;;5071143;28;19941;-46
2023/03/04 07:11:23;;;;;;;;;;;5.60;99.90;;;;;;5089065;28;19953;-45
2023/03/04 07:13:50;;;;;;;;;;;5.60;99.90;;;;;;5091242;28;19946;-45
2023/03/04 07:16:17;;;;;;;;;;;5.70;99.90;;;;;;5090028;28;20170;-48
2023/03/04 07:18:45;;;;;;;;;;;5.70;99.90;;;;;;5090267;28;20354;-44
2023/03/04 07:21:12;;;;;;;;;;;5.70;99.90;;;;;;5090748;28;20043;-47
2023/03/04 07:23:39;;;;;;;;;;;5.80;99.90;;;;;;5074179;28;20036;-45
2023/03/04 07:26:05;;;;;;;;;;;5.70;99.90;;;;;;5072522;28;20373;-46
2023/03/04 07:28:32;;;;;;;;;;;5.70;99.90;;;;;;5091740;28;19944;-45
2023/03/04 07:31:07;;;;;;;;;;;5.80;99.90;;;;;;5088113;28;19994;-46
2023/03/04 07:33:34;;;;;;;;;;;5.80;99.90;;;;;;5068616;28;20032;-45
2023/03/04 07:36:02;;;;;;;;;;;5.90;99.90;;;;;;5087863;28;20432;-47
2023/03/04 07:38:28;;;;;;;;;;;6.00;99.90;;;;;;5089251;28;19993;-48
2023/03/04 07:40:55;;;;;;;;;;;6.20;99.90;;;;;;5073656;28;19943;-44
2023/03/04 07:43:22;;;;;;;;;;;6.20;99.90;;;;;;5068931;28;20050;-44
2023/03/04 07:45:49;;;;;;;;;;;6.30;99.90;;;;;;5063415;28;20012;-41
2023/03/04 07:48:15;;;;;;;;;;;6.40;99.90;;;;;;5085924;28;19994;-48
2023/03/04 07:50:42;;;;;;;;;;;6.40;99.90;;;;;;5067235;28;20717;-49
2023/03/04 07:53:10;;;;;;;;;;;6.40;99.90;;;;;;5072305;28;20033;-48
2023/03/04 07:55:36;;;;;;;;;;;6.40;99.90;;;;;;5068963;28;19983;-48
2023/03/04 07:58:03;;;;;;;;;;;6.40;99.90;;;;;;5090524;28;19992;-46
2023/03/04 08:00:30;;;;;;;;;;;6.40;99.90;;;;;;5071967;28;19949;-42
2023/03/04 08:02:57;;;;;;;;;;;6.40;99.90;;;;;;5069677;28;19959;-45
2023/03/04 08:05:23;;;;;;;;;;;6.40;99.90;;;;;;5091766;28;20466;-49
2023/03/04 08:07:51;;;;;;;;;;;6.40;99.90;;;;;;5071838;28;20446;-44
2023/03/04 08:10:19;;;;;;;;;;;6.40;99.90;;;;;;5071010;28;19985;-44
2023/03/04 08:12:46;;;;;;;;;;;6.40;99.90;;;;;;5069020;28;20047;-41
2023/03/04 08:15:12;;;;;;;;;;;6.40;99.90;;;;;;5091136;28;20001;-45
2023/03/04 08:17:39;;;;;;;;;;;6.40;99.90;;;;;;5070637;28;19944;-43
2023/03/04 08:20:06;;;;;;;;;;;6.40;99.90;;;;;;5073676;28;20301;-44
2023/03/04 08:22:33;;;;;;;;;;;6.40;99.90;;;;;;5090180;28;19975;-45
2023/03/04 08:25:00;;;;;;;;;;;6.40;99.90;;;;;;5074059;28;19977;-45
2023/03/04 08:27:28;;;;;;;;;;;6.50;99.90;;;;;;5091626;28;19949;-45
2023/03/04 08:29:54;;;;;;;;;;;6.50;99.90;;;;;;5091161;28;20302;-45
2023/03/04 08:32:21;;;;;;;;;;;6.70;99.90;;;;;;5074329;28;20459;-48
2023/03/04 08:34:48;;;;;;;;;;;6.80;99.90;;;;;;5073941;28;19952;-45
2023/03/04 08:37:14;;;;;;;;;;;6.90;99.90;;;;;;5090415;28;20009;-47
2023/03/04 08:39:41;;;;;;;;;;;6.90;99.90;;;;;;5089136;28;19995;-46
2023/03/04 08:42:08;;;;;;;;;;;6.90;99.90;;;;;;5089786;28;20046;-42
2023/03/04 08:44:35;;;;;;;;;;;6.90;99.90;;;;;;5072409;28;20037;-47
2023/03/04 08:47:02;;;;;;;;;;;6.90;99.90;;;;;;5092758;28;19978;-41
2023/03/04 08:49:29;;;;;;;;;;;6.90;99.90;;;;;;5092583;28;20029;-45
2023/03/04 08:51:55;;;;;;;;;;;6.90;99.90;;;;;;5073328;28;20363;-47
2023/03/04 08:54:22;;;;;;;;;;;6.90;99.90;;;;;;5073938;28;19980;-46
2023/03/04 08:56:49;;;;;;;;;;;7.00;99.90;;;;;;5091473;28;19972;-47
2023/03/04 08:59:15;;;;;;;;;;;7.00;99.90;;;;;;5073528;28;20428;-44
2023/03/04 09:01:43;;;;;;;;;;;7.00;99.90;;;;;;5093776;28;19939;-44
2023/03/04 09:04:10;;;;;;;;;;;7.00;99.90;;;;;;5089722;28;19999;-44
2023/03/04 09:06:37;;;;;;;;;;;7.10;99.90;;;;;;5091701;28;20377;-43
2023/03/04 09:09:03;;;;;;;;;;;7.10;99.90;;;;;;5073083;28;19943;-48
2023/03/04 09:11:30;;;;;;;;;;;7.20;99.90;;;;;;5074439;28;19993;-48
2023/03/04 09:13:57;;;;;;;;;;;7.10;99.90;;;;;;5089110;28;19950;-46
2023/03/04 09:16:23;;;;;;;;;;;7.10;99.90;;;;;;5089088;28;20439;-45
2023/03/04 09:18:51;;;;;;;;;;;7.00;99.90;;;;;;5091001;28;20033;-50
2023/03/04 09:21:18;;;;;;;;;;;6.90;99.90;;;;;;5072683;28;19995;-43
2023/03/04 09:23:45;;;;;;;;;;;6.80;99.90;;;;;;5090609;28;19963;-46
2023/03/04 09:26:19;;;;;;;;;;;6.80;99.90;;;;;;5090150;28;19957;-48
2023/03/04 09:28:45;;;;;;;;;;;6.80;99.90;;;;;;5070512;28;19991;-40
2023/03/04 09:31:12;;;;;;;;;;;6.90;99.90;;;;;;5074439;28;20050;-48
2023/03/04 09:33:40;;;;;;;;;;;7.00;99.90;;;;;;5077208;28;20041;-47
2023/03/04 09:36:09;;;;;;;;;;;7.10;99.90;;;;;;5092202;28;19964;-45
2023/03/04 09:38:37;;;;;;;;;;;7.10;99.90;;;;;;5091028;28;20002;-43
2023/03/04 09:41:04;;;;;;;;;;;7.10;99.90;;;;;;5073130;28;19988;-47
2023/03/04 09:43:31;;;;;;;;;;;7.20;99.90;;;;;;5093409;28;20406;-44
2023/03/04 09:45:58;;;;;;;;;;;7.20;99.90;;;;;;5078562;28;20379;-41
2023/03/04 09:48:26;;;;;;;;;;;7.20;99.90;;;;;;5074297;28;20454;-47
2023/03/04 09:50:58;;;;;;;;;;;7.30;99.90;;;;;;5074524;28;19991;-45
2023/03/04 09:53:27;;;;;;;;;;;7.30;99.90;;;;;;5098194;28;19951;-47
2023/03/04 09:55:54;;;;;;;;;;;7.30;99.90;;;;;;5076976;28;20038;-44
2023/03/04 09:58:25;;;;;;;;;;;7.30;99.90;;;;;;5095627;28;20003;-44
2023/03/04 10:00:52;;;;;;;;;;;7.30;99.90;;;;;;5073070;28;19944;-43
2023/03/04 10:03:19;;;;;;;;;;;7.30;99.90;;;;;;5094473;28;20049;-44
2023/03/04 10:05:50;;;;;;;;;;;7.20;99.90;;;;;;5095942;28;19938;-43
2023/03/04 10:08:34;;;;;;;;;;;7.10;99.90;;;;;;5095597;28;19946;-46
2023/03/04 10:11:03;;;;;;;;;;;7.10;99.90;;;;;;5074061;28;20028;-44
2023/03/04 10:13:31;;;;;;;;;;;7.10;99.90;;;;;;5075199;28;19941;-42
2023/03/04 10:15:58;;;;;;;;;;;7.10;99.90;;;;;;5091689;28;21793;-42
2023/03/04 10:18:27;;;;;;;;;;;7.00;99.90;;;;;;5094343;28;19950;-46
2023/03/04 10:20:54;;;;;;;;;;;7.10;99.90;;;;;;5093480;28;19980;-43
2023/03/04 10:23:21;;;;;;;;;;;7.10;99.90;;;;;;5093781;28;20054;-44
2023/03/04 10:25:53;;;;;;;;;;;7.10;99.90;;;;;;5070277;28;20524;-43
2023/03/04 10:28:21;;;;;;;;;;;7.10;99.90;;;;;;5091100;28;19996;-43
2023/03/04 10:30:49;;;;;;;;;;;7.10;99.90;;;;;;5075986;28;19974;-43
2023/03/04 10:33:16;;;;;;;;;;;7.20;99.90;;;;;;5073288;28;20002;-43
2023/03/04 10:35:43;;;;;;;;;;;7.20;99.90;;;;;;5090442;28;20043;-42
2023/03/04 10:38:10;;;;;;;;;;;7.20;99.90;;;;;;5094143;28;19943;-41
2023/03/04 10:40:37;;;;;;;;;;;7.20;99.90;;;;;;5075759;28;19944;-45
2023/03/04 10:43:06;;;;;;;;;;;7.20;99.90;;;;;;5075604;28;20004;-43
2023/03/04 10:45:37;;;;;;;;;;;7.20;99.90;;;;;;5071818;28;19947;-42
2023/03/04 10:48:04;;;;;;;;;;;7.00;99.90;;;;;;5091508;28;20398;-44
2023/03/04 10:50:31;;;;;;;;;;;7.00;99.90;;;;;;5071825;28;19978;-42
2023/03/04 10:53:01;;;;;;;;;;;6.90;99.90;;;;;;5071621;28;19941;-43
2023/03/04 10:55:28;;;;;;;;;;;6.80;99.90;;;;;;5092018;28;20416;-44
2023/03/04 10:57:55;;;;;;;;;;;6.80;99.90;;;;;;5092119;28;19984;-44
2023/03/04 11:00:26;;;;;;;;;;;6.80;99.90;;;;;;5071500;28;19986;-45
2023/03/04 11:02:54;;;;;;;;;;;6.80;99.90;;;;;;5071807;28;19960;-42
2023/03/04 11:05:21;;;;;;;;;;;6.80;99.90;;;;;;5072496;28;20006;-41
2023/03/04 11:07:49;;;;;;;;;;;6.90;99.90;;;;;;5093407;28;20011;-44
2023/03/04 11:10:17;;;;;;;;;;;7.00;99.90;;;;;;5091652;28;20031;-45
2023/03/04 11:12:47;;;;;;;;;;;7.10;99.90;;;;;;5066414;28;19989;-42
2023/03/04 11:15:23;;;;;;;;;;;7.30;99.90;;;;;;5088424;28;19941;-44
2023/03/04 11:17:50;;;;;;;;;;;7.50;99.90;;;;;;5066116;28;19965;-43
2023/03/04 11:20:23;;;;;;;;;;;7.60;99.90;;;;;;5090156;28;20028;-43
2023/03/04 11:22:49;;;;;;;;;;;7.70;99.90;;;;;;5091210;28;19956;-40
2023/03/04 11:25:19;;;;;;;;;;;7.70;99.90;;;;;;5071394;28;19945;-41
2023/03/04 11:27:47;;;;;;;;;;;7.60;99.90;;;;;;5063683;28;19994;-39
2023/03/04 11:30:19;;;;;;;;;;;7.60;99.90;;;;;;5089339;28;20395;-43
2023/03/04 11:32:47;;;;;;;;;;;7.60;99.90;;;;;;5081351;28;20019;-45
2023/03/04 11:35:15;;;;;;;;;;;7.50;99.90;;;;;;5069582;28;19989;-42
2023/03/04 11:37:44;;;;;;;;;;;7.50;99.90;;;;;;5069640;28;19988;-42
2023/03/04 11:40:11;;;;;;;;;;;7.40;99.90;;;;;;5073510;28;20302;-44
2023/03/04 11:42:39;;;;;;;;;;;7.50;99.90;;;;;;5090877;28;20305;-45
2023/03/04 11:45:09;;;;;;;;;;;7.40;99.90;;;;;;5070665;28;20030;-44
2023/03/04 11:47:41;;;;;;;;;;;7.50;99.90;;;;;;5072269;28;20050;-46
2023/03/04 11:50:10;;;;;;;;;;;7.50;99.90;;;;;;5070750;28;19940;-41
2023/03/04 11:52:54;;;;;;;;;;;7.50;99.90;;;;;;5091610;28;19986;-45
2023/03/04 11:55:26;;;;;;;;;;;7.40;99.90;;;;;;5039235;28;19937;-44
2023/03/04 11:57:55;;;;;;;;;;;7.40;99.90;;;;;;5067331;28;20411;-42
2023/03/04 12:00:24;;;;;;;;;;;7.30;99.90;;;;;;5087683;28;19942;-45
2023/03/04 12:02:54;;;;;;;;;;;7.30;99.90;;;;;;5065543;28;20355;-39
2023/03/04 12:05:26;;;;;;;;;;;7.30;99.90;;;;;;5091303;28;20357;-42
2023/03/04 12:08:23;;;;;;;;;;;7.30;99.90;;;;;;5089090;28;19982;-45
2023/03/04 12:10:53;;;;;;;;;;;7.30;99.90;;;;;;4993200;28;20000;-42
2023/03/04 12:13:29;;;;;;;;;;;7.30;99.90;;;;;;5065976;28;19944;-43
2023/03/04 12:15:58;;;;;;;;;;;7.40;99.90;;;;;;5055188;28;19967;-42
2023/03/04 12:18:37;;;;;;;;;;;7.50;99.90;;;;;;5063174;28;19993;-43
2023/03/04 12:21:08;;;;;;;;;;;7.50;99.90;;;;;;5075648;28;19948;-42
2023/03/04 12:23:40;;;;;;;;;;;7.60;99.90;;;;;;5073712;28;19963;-46
2023/03/04 12:26:09;;;;;;;;;;;7.70;99.90;;;;;;5091901;28;19959;-44
2023/03/04 12:28:40;;;;;;;;;;;7.80;99.90;;;;;;5073365;28;20292;-44
2023/03/04 12:31:17;;;;;;;;;;;8.00;99.90;;;;;;5086570;28;19942;-44
2023/03/04 12:33:47;;;;;;;;;;;8.10;99.90;;;;;;5069005;28;19945;-43
2023/03/04 12:36:15;;;;;;;;;;;8.10;99.90;;;;;;5073906;28;19947;-45
2023/03/04 12:38:48;;;;;;;;;;;8.10;99.90;;;;;;5091410;28;19945;-47
2023/03/04 12:41:21;;;;;;;;;;;7.90;99.90;;;;;;5075104;28;19951;-44
2023/03/04 12:43:50;;;;;;;;;;;7.90;99.90;;;;;;5091063;28;20047;-41
2023/03/04 12:46:27;;;;;;;;;;;7.80;99.90;;;;;;5074795;28;19949;-45
2023/03/04 12:48:58;;;;;;;;;;;7.80;99.90;;;;;;5092959;28;19946;-45
2023/03/04 12:51:28;;;;;;;;;;;7.80;99.90;;;;;;5092711;28;20019;-44
2023/03/04 12:53:58;;;;;;;;;;;7.70;99.90;;;;;;5090953;28;19953;-42
2023/03/04 12:56:26;;;;;;;;;;;7.80;99.90;;;;;;5073969;28;19992;-42
2023/03/04 12:58:53;;;;;;;;;;;7.70;99.90;;;;;;5086575;28;20006;-42
2023/03/04 13:01:21;;;;;;;;;;;7.70;99.90;;;;;;5071547;28;20412;-42
2023/03/04 13:03:51;;;;;;;;;;;7.70;99.90;;;;;;5069067;28;19961;-44
2023/03/04 13:06:25;;;;;;;;;;;7.70;99.90;;;;;;5091321;28;20417;-49
2023/03/04 13:08:54;;;;;;;;;;;7.70;99.90;;;;;;5073726;28;19947;-47
2023/03/04 13:11:41;;;;;;;;;;;7.80;99.90;;;;;;5095678;28;19993;-43
2023/03/04 13:14:08;;;;;;;;;;;7.90;99.90;;;;;;5076095;28;20430;-42
2023/03/04 13:16:35;;;;;;;;;;;7.90;99.90;;;;;;5091732;28;20372;-42
2023/03/04 13:19:02;;;;;;;;;;;8.00;99.90;;;;;;5092481;28;19946;-42
2023/03/04 13:21:30;;;;;;;;;;;8.00;99.90;;;;;;5074466;28;20002;-42
2023/03/04 13:23:57;;;;;;;;;;;7.90;99.90;;;;;;5072582;28;19967;-44
2023/03/04 13:26:24;;;;;;;;;;;7.90;99.90;;;;;;5073574;28;19999;-44
2023/03/04 13:28:55;;;;;;;;;;;7.70;99.90;;;;;;5092188;28;19948;-43
2023/03/04 13:31:25;;;;;;;;;;;7.70;99.90;;;;;;5090589;28;19942;-43
2023/03/04 13:33:53;;;;;;;;;;;7.70;99.90;;;;;;5073041;28;19954;-42
2023/03/04 13:36:27;;;;;;;;;;;7.80;99.90;;;;;;5073397;28;19998;-43
2023/03/04 13:38:57;;;;;;;;;;;7.80;99.90;;;;;;5074453;28;20428;-42
2023/03/04 13:41:24;;;;;;;;;;;7.80;99.90;;;;;;5074564;28;20012;-41
2023/03/04 13:43:51;;;;;;;;;;;7.80;99.90;;;;;;5069038;28;19956;-42
2023/03/04 13:46:37;;;;;;;;;;;7.80;99.90;;;;;;5091255;28;19939;-43
2023/03/04 13:49:06;;;;;;;;;;;7.80;99.90;;;;;;5058885;28;19959;-41
2023/03/04 13:51:33;;;;;;;;;;;7.70;99.90;;;;;;5090296;28;19983;-45
2023/03/04 13:54:07;;;;;;;;;;;7.80;99.90;;;;;;5072434;28;20397;-44
2023/03/04 13:56:34;;;;;;;;;;;8.00;99.90;;;;;;5079432;28;19952;-45
2023/03/04 13:59:02;;;;;;;;;;;8.10;99.90;;;;;;5072519;28;19954;-42
2023/03/04 14:01:30;;;;;;;;;;;8.20;99.90;;;;;;5090643;28;19944;-44
2023/03/04 14:03:57;;;;;;;;;;;8.20;99.90;;;;;;5071068;28;19977;-41
2023/03/04 14:06:25;;;;;;;;;;;8.20;99.90;;;;;;5090043;28;19999;-43
2023/03/04 14:08:52;;;;;;;;;;;8.40;99.90;;;;;;5070409;28;20400;-42
2023/03/04 14:11:22;;;;;;;;;;;8.50;99.90;;;;;;5089972;28;20008;-39
2023/03/04 14:13:49;;;;;;;;;;;8.40;99.90;;;;;;5072559;28;19945;-43
2023/03/04 14:16:19;;;;;;;;;;;8.20;99.90;;;;;;5071510;28;19967;-45
2023/03/04 14:18:46;;;;;;;;;;;8.00;99.90;;;;;;5089622;28;19955;-41
2023/03/04 14:21:13;;;;;;;;;;;7.90;99.90;;;;;;5087782;28;19947;-43
2023/03/04 14:23:41;;;;;;;;;;;7.80;99.90;;;;;;5073399;28;21274;-44
2023/03/04 14:26:11;;;;;;;;;;;7.70;99.90;;;;;;5088926;28;19985;-44
2023/03/04 14:28:44;;;;;;;;;;;7.70;99.90;;;;;;5072863;28;19953;-39
2023/03/04 14:31:14;;;;;;;;;;;7.70;99.90;;;;;;5088490;28;20009;-40
2023/03/04 14:33:43;;;;;;;;;;;7.70;99.90;;;;;;5090667;28;19944;-41
2023/03/04 14:36:13;;;;;;;;;;;7.80;99.90;;;;;;5090283;28;19948;-42